createdAt,value
2023-03-13T00:01:02.803Z,6.30
2023-03-13T00:03:29.663Z,6.20
2023-03-13T00:05:58.025Z,6.23
2023-03-13T00:08:33.990Z,6.24
2023-03-13T00:11:08.108Z,6.24
2023-03-13T00:13:35.123Z,6.20
2023-03-13T00:16:29.115Z,6.23
2023-03-13T00:18:57.581Z,6.11
2023-03-13T00:21:26.761Z,6.10
2023-03-13T00:23:54.228Z,6.12
2023-03-13T00:26:23.727Z,6.14
2023-03-13T00:28:51.666Z,6.19
2023-03-13T00:31:21.735Z,6.26
2023-03-13T00:33:50.494Z,6.32
2023-03-13T00:36:21.560Z,6.41
2023-03-13T00:38:48.613Z,6.43
2023-03-13T00:41:18.252Z,6.43
2023-03-13T00:43:46.096Z,6.49
2023-03-13T00:46:17.265Z,6.41
2023-03-13T00:48:44.253Z,6.34
2023-03-13T00:51:11.580Z,6.35
2023-03-13T00:53:38.676Z,6.34
2023-03-13T00:56:07.288Z,6.37
2023-03-13T00:58:36.904Z,6.46
2023-03-13T01:01:24.434Z,6.55
2023-03-13T01:03:57.562Z,6.57
2023-03-13T01:06:27.856Z,6.64
2023-03-13T01:08:54.976Z,6.70
2023-03-13T01:11:25.611Z,6.76
2023-03-13T01:13:57.872Z,6.69
2023-03-13T01:16:26.461Z,6.73
2023-03-13T01:18:55.903Z,6.71
2023-03-13T01:21:25.447Z,6.77
2023-03-13T01:23:53.532Z,6.77
2023-03-13T01:26:21.679Z,6.86
2023-03-13T01:28:48.923Z,6.82
2023-03-13T01:31:19.720Z,6.91
2023-03-13T01:33:49.099Z,6.83
2023-03-13T01:36:16.692Z,6.78
2023-03-13T01:38:43.698Z,6.91
2023-03-13T01:41:13.171Z,6.90
2023-03-13T01:43:40.680Z,6.81
2023-03-13T01:46:07.640Z,6.82
2023-03-13T01:49:01.361Z,6.67
2023-03-13T01:51:47.106Z,6.72
2023-03-13T01:54:26.619Z,6.76
2023-03-13T01:57:09.256Z,6.70
2023-03-13T01:59:42.888Z,6.74
2023-03-13T02:02:09.948Z,6.63
2023-03-13T02:04:40.289Z,6.62
2023-03-13T02:07:14.536Z,6.57
2023-03-13T02:09:44.123Z,6.64
2023-03-13T02:12:15.673Z,6.57
2023-03-13T02:14:47.885Z,6.55
2023-03-13T02:17:15.809Z,6.17
2023-03-13T02:19:52.161Z,6.45
2023-03-13T02:22:54.886Z,6.48
2023-03-13T02:25:24.735Z,6.48
2023-03-13T02:27:56.613Z,6.40
2023-03-13T02:30:24.089Z,6.44
2023-03-13T02:32:53.305Z,6.40
2023-03-13T02:35:27.793Z,6.46
2023-03-13T02:38:00.175Z,6.48
2023-03-13T02:40:34.171Z,6.49
2023-03-13T02:43:05.264Z,6.49
2023-03-13T02:45:32.214Z,6.47
2023-03-13T02:47:59.249Z,6.50
2023-03-13T02:50:26.321Z,6.49
2023-03-13T02:53:01.067Z,6.54
2023-03-13T02:55:48.060Z,6.50
2023-03-13T02:58:14.914Z,6.47
2023-03-13T03:00:41.734Z,6.53
2023-03-13T03:03:08.741Z,6.54
2023-03-13T03:05:35.788Z,6.52
2023-03-13T03:08:02.597Z,6.57
2023-03-13T03:10:29.725Z,6.57
2023-03-13T03:12:56.769Z,6.57
2023-03-13T03:15:23.969Z,6.60
2023-03-13T03:17:53.459Z,6.29
2023-03-13T03:20:20.427Z,6.61
2023-03-13T03:22:47.457Z,6.62
2023-03-13T03:25:14.165Z,6.63
2023-03-13T03:27:41.050Z,6.66
2023-03-13T03:30:08.747Z,6.59
2023-03-13T03:32:35.925Z,6.61
2023-03-13T03:35:02.981Z,6.65
2023-03-13T03:37:29.909Z,6.59
2023-03-13T03:39:56.770Z,6.58
2023-03-13T03:42:23.787Z,6.59
2023-03-13T03:44:50.630Z,6.60
2023-03-13T03:47:18.083Z,6.53
2023-03-13T03:49:44.970Z,6.57
2023-03-13T03:52:11.797Z,6.54
2023-03-13T03:54:38.741Z,6.55
2023-03-13T03:57:05.549Z,6.58
2023-03-13T03:59:32.776Z,6.59
2023-03-13T04:01:59.606Z,6.61
2023-03-13T04:04:26.900Z,6.67
2023-03-13T04:06:54.432Z,6.69
2023-03-13T04:09:21.154Z,6.68
2023-03-13T04:11:48.156Z,6.67
2023-03-13T04:14:15.312Z,6.61
2023-03-13T04:16:42.181Z,6.64
2023-03-13T04:19:09.325Z,6.64
2023-03-13T04:21:36.741Z,6.70
2023-03-13T04:24:03.700Z,6.73
2023-03-13T04:26:30.714Z,6.75
2023-03-13T04:28:57.623Z,6.75
2023-03-13T04:31:24.575Z,6.78
2023-03-13T04:33:51.477Z,6.77
2023-03-13T04:36:18.201Z,6.77
2023-03-13T04:38:45.241Z,6.54
2023-03-13T04:41:13.190Z,6.69
2023-03-13T04:43:40.186Z,6.71
2023-03-13T04:46:07.145Z,6.74
2023-03-13T04:48:34.161Z,6.72
2023-03-13T04:51:01.432Z,6.73
2023-03-13T04:53:28.690Z,6.56
2023-03-13T04:55:55.563Z,6.78
2023-03-13T04:58:22.512Z,6.74
2023-03-13T05:00:49.468Z,6.79
2023-03-13T05:03:16.352Z,6.80
2023-03-13T05:05:43.240Z,6.76
2023-03-13T05:08:11.216Z,6.82
2023-03-13T05:10:38.342Z,6.88
2023-03-13T05:13:05.188Z,6.88
2023-03-13T05:15:32.208Z,6.88
2023-03-13T05:17:59.159Z,6.91
2023-03-13T05:20:26.253Z,6.92
2023-03-13T05:22:53.360Z,6.95
2023-03-13T05:25:20.255Z,7.02
2023-03-13T05:27:47.245Z,6.96
2023-03-13T05:30:14.252Z,7.00
2023-03-13T05:32:42.323Z,6.98
2023-03-13T05:35:09.460Z,6.92
2023-03-13T05:37:36.410Z,6.90
2023-03-13T05:40:04.590Z,6.96
2023-03-13T05:42:31.486Z,6.95
2023-03-13T05:44:58.335Z,6.88
2023-03-13T05:47:25.262Z,7.02
2023-03-13T05:49:52.252Z,7.03
2023-03-13T05:52:19.353Z,7.03
2023-03-13T05:54:46.359Z,7.08
2023-03-13T05:57:13.511Z,6.95
2023-03-13T05:59:40.782Z,7.16
2023-03-13T06:02:07.714Z,7.21
2023-03-13T06:04:35.844Z,7.17
2023-03-13T06:07:02.922Z,7.23
2023-03-13T06:09:29.777Z,7.25
2023-03-13T06:11:56.720Z,7.30
2023-03-13T06:14:23.896Z,7.33
2023-03-13T06:16:50.891Z,7.35
2023-03-13T06:19:20.820Z,7.43
2023-03-13T06:21:47.680Z,7.35
2023-03-13T06:24:14.560Z,7.47
2023-03-13T06:26:41.543Z,7.57
2023-03-13T06:29:08.401Z,7.62
2023-03-13T06:31:35.404Z,7.72
2023-03-13T06:34:02.646Z,7.80
2023-03-13T06:36:29.658Z,7.84
2023-03-13T06:38:56.634Z,7.86
2023-03-13T06:41:23.700Z,7.94
2023-03-13T06:43:50.670Z,7.95
2023-03-13T06:46:23.171Z,7.84
2023-03-13T06:48:50.989Z,7.98
2023-03-13T06:51:21.385Z,8.01
2023-03-13T06:53:51.587Z,8.15
2023-03-13T06:56:18.999Z,8.18
2023-03-13T06:58:49.888Z,8.04
2023-03-13T07:01:24.367Z,8.15
2023-03-13T07:03:51.616Z,8.25
2023-03-13T07:06:18.958Z,8.32
2023-03-13T07:08:46.327Z,8.09
2023-03-13T07:11:16.564Z,8.36
2023-03-13T07:13:43.561Z,8.38
2023-03-13T07:16:13.335Z,8.31
2023-03-13T07:18:47.259Z,8.41
2023-03-13T07:21:15.103Z,8.42
2023-03-13T07:23:42.095Z,8.50
2023-03-13T07:26:13.970Z,8.54
2023-03-13T07:28:41.120Z,8.61
2023-03-13T07:31:17.031Z,8.62
2023-03-13T07:33:45.158Z,8.68
2023-03-13T07:36:14.103Z,8.70
2023-03-13T07:38:43.274Z,8.73
2023-03-13T07:41:19.777Z,8.77
2023-03-13T07:43:46.957Z,8.81
2023-03-13T07:46:18.862Z,8.89
2023-03-13T07:48:46.873Z,8.95
2023-03-13T07:51:23.269Z,9.01
2023-03-13T07:53:52.893Z,9.08
2023-03-13T07:56:24.017Z,9.11
2023-03-13T07:58:52.148Z,9.16
2023-03-13T08:01:26.836Z,9.14
2023-03-13T08:03:56.168Z,9.26
2023-03-13T08:06:29.814Z,9.17
2023-03-13T08:08:58.990Z,9.43
2023-03-13T08:11:28.578Z,9.51
2023-03-13T08:13:57.356Z,9.38
2023-03-13T08:16:28.027Z,9.50
2023-03-13T08:18:57.235Z,9.61
2023-03-13T08:21:35.652Z,9.76
2023-03-13T08:24:07.136Z,9.75
2023-03-13T08:26:36.686Z,9.91
2023-03-13T08:29:07.364Z,10.10
2023-03-13T08:31:42.486Z,10.10
2023-03-13T08:34:12.745Z,10.14
2023-03-13T08:36:40.000Z,10.09
2023-03-13T08:39:19.029Z,10.14
2023-03-13T08:41:46.367Z,10.14
2023-03-13T08:44:18.662Z,10.22
2023-03-13T08:46:45.848Z,10.21
2023-03-13T08:49:13.654Z,10.22
2023-03-13T08:51:41.036Z,10.36
2023-03-13T08:54:08.127Z,10.35
2023-03-13T08:56:35.374Z,10.34
2023-03-13T08:59:04.518Z,10.38
2023-03-13T09:01:36.239Z,10.37
2023-03-13T09:04:05.309Z,10.56
2023-03-13T09:06:37.446Z,10.58
2023-03-13T09:09:06.976Z,10.62
2023-03-13T09:11:34.779Z,10.53
2023-03-13T09:14:03.019Z,10.61
2023-03-13T09:16:32.929Z,10.63
2023-03-13T09:19:00.423Z,10.79
2023-03-13T09:21:35.901Z,10.80
2023-03-13T09:24:04.197Z,10.66
2023-03-13T09:26:31.235Z,10.84
2023-03-13T09:28:58.991Z,10.89
2023-03-13T09:31:35.591Z,10.97
2023-03-13T09:34:02.909Z,11.01
2023-03-13T09:36:30.221Z,11.12
2023-03-13T09:38:59.505Z,11.25
2023-03-13T09:41:31.492Z,11.32
2023-03-13T09:44:18.446Z,11.27
2023-03-13T09:47:12.664Z,11.22
2023-03-13T09:49:47.375Z,11.10
2023-03-13T09:52:27.685Z,11.10
2023-03-13T09:55:03.378Z,11.23
2023-03-13T09:57:55.997Z,11.36
2023-03-13T10:00:25.526Z,11.34
2023-03-13T10:03:21.122Z,11.41
2023-03-13T10:05:55.608Z,11.26
2023-03-13T10:08:25.154Z,11.49
2023-03-13T10:11:07.901Z,11.69
2023-03-13T10:13:44.028Z,11.61
2023-03-13T10:16:53.579Z,11.65
2023-03-13T10:19:31.525Z,12.34
2023-03-13T10:22:02.506Z,12.16
2023-03-13T10:24:42.717Z,12.08
2023-03-13T10:27:11.566Z,12.66
2023-03-13T10:29:38.935Z,13.94
2023-03-13T10:32:08.588Z,14.78
2023-03-13T10:34:58.799Z,15.12
2023-03-13T10:37:40.428Z,15.54
2023-03-13T10:40:26.848Z,14.95
2023-03-13T10:43:01.206Z,15.05
2023-03-13T10:45:33.151Z,14.11
2023-03-13T10:48:27.524Z,13.38
2023-03-13T10:51:01.231Z,13.25
2023-03-13T10:53:29.226Z,12.89
2023-03-13T10:56:18.845Z,12.51
2023-03-13T10:58:50.170Z,12.36
2023-03-13T11:01:29.844Z,12.37
2023-03-13T11:04:03.122Z,12.55
2023-03-13T11:06:31.388Z,13.18
2023-03-13T11:09:03.636Z,17.11
2023-03-13T11:11:31.297Z,20.86
2023-03-13T11:14:25.430Z,18.27
2023-03-13T11:16:59.389Z,16.60
2023-03-13T11:19:30.184Z,16.04
2023-03-13T11:22:15.363Z,15.35
2023-03-13T11:25:04.857Z,14.91
2023-03-13T11:28:07.319Z,14.44
2023-03-13T11:30:49.260Z,14.34
2023-03-13T11:33:28.841Z,14.96
2023-03-13T11:36:10.516Z,17.14
2023-03-13T11:38:44.706Z,21.76
2023-03-13T11:41:41.837Z,21.80
2023-03-13T11:44:27.085Z,21.69
2023-03-13T11:47:14.025Z,22.48
2023-03-13T11:50:08.563Z,19.04
2023-03-13T11:52:47.569Z,17.29
2023-03-13T11:55:26.875Z,17.44
2023-03-13T11:58:09.630Z,19.25
2023-03-13T12:00:58.176Z,20.39
2023-03-13T12:03:37.373Z,22.11
2023-03-13T12:06:15.926Z,18.55
2023-03-13T12:08:56.206Z,17.00
2023-03-13T12:11:28.882Z,17.15
2023-03-13T12:14:05.606Z,17.06
2023-03-13T12:16:57.411Z,19.23
2023-03-13T12:19:46.074Z,19.10
2023-03-13T12:22:25.087Z,20.13
2023-03-13T12:25:00.152Z,19.00
2023-03-13T12:27:33.806Z,17.20
2023-03-13T12:30:06.963Z,16.78
2023-03-13T12:32:33.831Z,16.41
2023-03-13T12:35:32.249Z,16.80
2023-03-13T12:38:14.516Z,17.02
2023-03-13T12:41:15.108Z,17.04
2023-03-13T12:43:57.215Z,17.35
2023-03-13T12:47:12.807Z,17.78
2023-03-13T12:50:04.802Z,18.05
2023-03-13T12:52:31.828Z,17.48
2023-03-13T12:55:14.603Z,17.54
2023-03-13T12:58:06.799Z,17.34
2023-03-13T13:00:40.243Z,17.38
2023-03-13T13:03:43.922Z,17.46
2023-03-13T13:06:14.390Z,16.93
2023-03-13T13:08:53.034Z,17.01
2023-03-13T13:11:41.290Z,17.27
2023-03-13T13:14:17.622Z,17.17
2023-03-13T13:16:48.713Z,17.12
2023-03-13T13:19:24.714Z,17.41
2023-03-13T13:22:29.009Z,17.25
2023-03-13T13:25:00.782Z,17.16
2023-03-13T13:27:50.931Z,17.04
2023-03-13T13:30:18.004Z,16.79
2023-03-13T13:32:50.090Z,16.83
2023-03-13T13:35:24.738Z,16.71
2023-03-13T13:37:51.942Z,16.64
2023-03-13T13:40:26.856Z,16.54
2023-03-13T13:43:02.119Z,16.84
2023-03-13T13:45:35.666Z,17.51
2023-03-13T13:48:26.754Z,17.21
2023-03-13T13:51:13.290Z,17.05
2023-03-13T13:53:47.997Z,17.06
2023-03-13T13:56:39.551Z,16.80
2023-03-13T13:59:52.626Z,16.97
2023-03-13T14:03:00.391Z,16.78
2023-03-13T14:05:30.866Z,16.67
2023-03-13T14:08:16.463Z,16.56
2023-03-13T14:10:47.107Z,16.65
2023-03-13T14:13:22.156Z,16.86
2023-03-13T14:15:53.055Z,16.68
2023-03-13T14:18:25.940Z,16.76
2023-03-13T14:20:54.491Z,16.77
2023-03-13T14:23:42.396Z,16.91
2023-03-13T14:26:18.171Z,16.77
2023-03-13T14:29:07.378Z,16.87
2023-03-13T14:31:37.650Z,16.71
2023-03-13T14:34:07.817Z,16.64
2023-03-13T14:37:01.600Z,16.55
2023-03-13T14:39:34.439Z,16.68
2023-03-13T14:42:05.776Z,16.93
2023-03-13T14:44:41.795Z,16.81
2023-03-13T14:47:31.022Z,16.73
2023-03-13T14:50:04.566Z,16.63
2023-03-13T14:52:34.087Z,16.59
2023-03-13T14:55:05.344Z,16.79
2023-03-13T14:57:33.369Z,16.44
2023-03-13T15:00:28.332Z,16.61
2023-03-13T15:03:17.205Z,16.21
2023-03-13T15:05:46.180Z,16.29
2023-03-13T15:08:23.159Z,16.14
2023-03-13T15:10:51.090Z,16.14
2023-03-13T15:13:34.385Z,16.00
2023-03-13T15:16:04.291Z,16.22
2023-03-13T15:18:34.625Z,15.88
2023-03-13T15:21:13.512Z,15.82
2023-03-13T15:23:49.381Z,16.01
2023-03-13T15:26:16.362Z,15.60
2023-03-13T15:28:43.516Z,15.51
2023-03-13T15:31:13.266Z,15.47
2023-03-13T15:33:40.735Z,15.38
2023-03-13T15:36:08.119Z,15.45
2023-03-13T15:38:35.543Z,15.52
2023-03-13T15:41:02.678Z,15.45
2023-03-13T15:43:29.740Z,15.73
2023-03-13T15:45:56.650Z,15.83
2023-03-13T15:48:29.676Z,15.44
2023-03-13T15:51:02.628Z,15.12
2023-03-13T15:53:34.784Z,15.12
2023-03-13T15:56:03.552Z,15.24
2023-03-13T15:58:30.752Z,15.35
2023-03-13T16:00:58.661Z,15.17
2023-03-13T16:03:27.437Z,15.22
2023-03-13T16:05:56.255Z,15.12
2023-03-13T16:08:37.068Z,15.28
2023-03-13T16:11:04.357Z,15.11
2023-03-13T16:13:31.721Z,15.03
2023-03-13T16:15:58.820Z,15.08
2023-03-13T16:18:26.225Z,15.19
2023-03-13T16:20:53.967Z,14.98
2023-03-13T16:23:20.884Z,14.83
2023-03-13T16:25:48.762Z,14.77
2023-03-13T16:28:16.556Z,14.54
2023-03-13T16:30:47.890Z,14.51
2023-03-13T16:33:17.322Z,14.39
2023-03-13T16:35:47.371Z,14.32
2023-03-13T16:38:14.387Z,14.22
2023-03-13T16:40:41.489Z,14.23
2023-03-13T16:43:15.788Z,14.17
2023-03-13T16:45:42.796Z,14.14
2023-03-13T16:48:17.713Z,14.02
2023-03-13T16:50:46.910Z,13.91
2023-03-13T16:53:15.017Z,13.80
2023-03-13T16:55:42.126Z,13.76
2023-03-13T16:58:12.798Z,13.78
2023-03-13T17:00:39.917Z,13.83
2023-03-13T17:03:06.847Z,13.88
2023-03-13T17:05:33.980Z,13.92
2023-03-13T17:08:00.862Z,14.00
2023-03-13T17:10:30.412Z,13.95
2023-03-13T17:12:59.678Z,13.74
2023-03-13T17:15:28.803Z,13.60
2023-03-13T17:17:56.577Z,13.56
2023-03-13T17:20:29.826Z,13.58
2023-03-13T17:22:57.112Z,13.62
2023-03-13T17:25:25.249Z,13.69
2023-03-13T17:27:52.711Z,13.75
2023-03-13T17:30:19.688Z,13.71
2023-03-13T17:32:48.284Z,13.79
2023-03-13T17:35:15.608Z,13.86
2023-03-13T17:37:44.688Z,13.91
2023-03-13T17:40:19.624Z,14.05
2023-03-13T17:42:48.287Z,13.95
2023-03-13T17:45:20.490Z,13.96
2023-03-13T17:47:49.451Z,14.02
2023-03-13T17:50:27.407Z,14.07
2023-03-13T17:52:54.876Z,13.86
2023-03-13T17:55:22.044Z,13.75
2023-03-13T17:57:49.816Z,13.56
2023-03-13T18:00:22.215Z,13.32
2023-03-13T18:02:49.824Z,13.13
2023-03-13T18:05:17.113Z,12.97
2023-03-13T18:07:44.593Z,12.86
2023-03-13T18:10:20.807Z,12.68
2023-03-13T18:12:48.298Z,12.49
2023-03-13T18:15:15.478Z,12.26
2023-03-13T18:17:42.582Z,12.01
2023-03-13T18:20:21.923Z,11.84
2023-03-13T18:22:48.920Z,11.64
2023-03-13T18:25:15.895Z,11.46
2023-03-13T18:27:42.755Z,11.40
2023-03-13T18:30:19.178Z,11.35
2023-03-13T18:32:46.732Z,11.40
2023-03-13T18:35:14.100Z,11.37
2023-03-13T18:37:46.518Z,11.36
2023-03-13T18:40:24.566Z,11.35
2023-03-13T18:42:52.052Z,11.25
2023-03-13T18:45:24.005Z,11.24
2023-03-13T18:47:51.329Z,11.22
2023-03-13T18:50:28.588Z,11.17
2023-03-13T18:53:00.554Z,11.13
2023-03-13T18:55:30.305Z,11.03
2023-03-13T18:58:00.367Z,11.02
2023-03-13T19:00:30.516Z,11.11
2023-03-13T19:02:57.608Z,10.98
2023-03-13T19:05:24.963Z,10.98
2023-03-13T19:07:52.048Z,10.93
2023-03-13T19:10:26.149Z,11.02
2023-03-13T19:12:55.122Z,11.10
2023-03-13T19:15:24.627Z,11.19
2023-03-13T19:17:52.255Z,11.30
2023-03-13T19:20:22.050Z,11.26
2023-03-13T19:22:49.019Z,11.32
2023-03-13T19:25:19.870Z,11.26
2023-03-13T19:27:50.123Z,11.21
2023-03-13T19:30:25.953Z,11.27
2023-03-13T19:32:53.429Z,11.32
2023-03-13T19:35:22.312Z,11.22
2023-03-13T19:37:50.092Z,11.17
2023-03-13T19:40:26.084Z,11.21
2023-03-13T19:42:56.049Z,11.04
2023-03-13T19:45:23.138Z,11.00
2023-03-13T19:47:50.488Z,10.88
2023-03-13T19:50:23.319Z,10.83
2023-03-13T19:52:50.378Z,10.72
2023-03-13T19:55:17.356Z,10.69
2023-03-13T19:57:44.501Z,10.63
2023-03-13T20:00:19.765Z,10.68
2023-03-13T20:02:47.047Z,10.69
2023-03-13T20:05:14.134Z,10.58
2023-03-13T20:07:41.990Z,10.61
2023-03-13T20:10:09.438Z,10.61
2023-03-13T20:12:36.505Z,10.53
2023-03-13T20:15:03.904Z,10.49
2023-03-13T20:17:33.536Z,10.46
2023-03-13T20:20:00.324Z,10.31
2023-03-13T20:22:27.289Z,10.27
2023-03-13T20:24:56.053Z,10.26
2023-03-13T20:27:22.875Z,10.19
2023-03-13T20:29:50.231Z,10.06
2023-03-13T20:32:17.119Z,10.02
2023-03-13T20:34:44.008Z,10.02
2023-03-13T20:37:10.869Z,10.00
2023-03-13T20:39:38.557Z,9.94
2023-03-13T20:42:08.381Z,9.91
2023-03-13T20:44:35.317Z,9.79
2023-03-13T20:47:02.120Z,9.67
2023-03-13T20:49:29.030Z,9.62
2023-03-13T20:51:55.997Z,9.59
2023-03-13T20:54:22.963Z,9.50
2023-03-13T20:56:49.782Z,9.31
2023-03-13T20:59:16.676Z,9.18
2023-03-13T21:01:44.219Z,9.15
2023-03-13T21:04:11.172Z,9.17
2023-03-13T21:06:38.143Z,9.14
2023-03-13T21:09:07.943Z,9.21
2023-03-13T21:11:34.960Z,9.14
2023-03-13T21:14:04.750Z,9.17
2023-03-13T21:16:31.745Z,9.11
2023-03-13T21:18:59.231Z,9.04
2023-03-13T21:21:29.718Z,9.12
2023-03-13T21:23:56.652Z,9.00
2023-03-13T21:26:23.473Z,9.00
2023-03-13T21:28:51.231Z,8.92
2023-03-13T21:31:19.291Z,8.93
2023-03-13T21:33:47.884Z,8.85
2023-03-13T21:36:18.695Z,8.60
2023-03-13T21:38:46.076Z,8.67
2023-03-13T21:41:16.807Z,8.73
2023-03-13T21:43:43.940Z,8.77
2023-03-13T21:46:13.003Z,8.86
2023-03-13T21:48:41.769Z,8.96
2023-03-13T21:51:09.160Z,9.07
2023-03-13T21:53:37.105Z,9.12
2023-03-13T21:56:05.011Z,9.33
2023-03-13T21:58:34.140Z,9.50
2023-03-13T22:01:01.232Z,9.61
2023-03-13T22:03:28.283Z,9.64
2023-03-13T22:05:55.581Z,9.65
2023-03-13T22:08:22.655Z,9.64
2023-03-13T22:10:51.063Z,9.59
2023-03-13T22:13:17.959Z,9.59
2023-03-13T22:15:46.718Z,9.54
2023-03-13T22:18:14.725Z,9.45
2023-03-13T22:20:42.290Z,9.43
2023-03-13T22:23:10.676Z,9.53
2023-03-13T22:25:42.529Z,9.72
2023-03-13T22:28:11.047Z,9.70
2023-03-13T22:30:39.200Z,9.64
2023-03-13T22:33:07.024Z,9.63
2023-03-13T22:35:35.661Z,9.55
2023-03-13T22:38:03.840Z,9.63
2023-03-13T22:40:30.773Z,9.41
2023-03-13T22:42:57.884Z,9.21
2023-03-13T22:45:25.768Z,9.19
2023-03-13T22:47:52.532Z,9.11
2023-03-13T22:50:21.085Z,9.21
2023-03-13T22:52:47.977Z,8.97
2023-03-13T22:55:14.902Z,8.95
2023-03-13T22:57:41.876Z,8.86
2023-03-13T23:00:10.338Z,8.88
2023-03-13T23:02:37.215Z,8.72
2023-03-13T23:05:04.573Z,8.81
2023-03-13T23:07:32.655Z,8.90
2023-03-13T23:09:59.892Z,8.96
2023-03-13T23:12:27.104Z,9.05
2023-03-13T23:14:54.721Z,9.06
2023-03-13T23:17:21.682Z,8.95
2023-03-13T23:19:48.915Z,9.06
2023-03-13T23:22:18.202Z,9.05
2023-03-13T23:24:45.315Z,9.02
2023-03-13T23:27:12.091Z,9.01
2023-03-13T23:29:39.409Z,9.04
2023-03-13T23:32:06.821Z,8.98
2023-03-13T23:34:36.109Z,9.05
2023-03-13T23:37:03.526Z,9.18
2023-03-13T23:39:31.020Z,9.16
2023-03-13T23:41:58.045Z,9.11
2023-03-13T23:44:24.740Z,9.05
2023-03-13T23:46:51.881Z,8.98
2023-03-13T23:49:18.666Z,8.97
2023-03-13T23:51:45.603Z,9.13
2023-03-13T23:54:12.762Z,9.12
2023-03-13T23:56:39.728Z,9.12
2023-03-13T23:59:06.699Z,9.13
